sensor_id;sensor_type;location;lat;lon;timestamp;pressure;altitude;pressure_sealevel;temperature;humidity
62779;BME280;48821;48.796;2.396;2023-02-14T00:00:32;103232.69;;;5.66;65.27
62779;BME280;48821;48.796;2.396;2023-02-14T00:01:47;103227.47;;;5.66;65.49
62779;BME280;48821;48.796;2.396;2023-02-14T00:02:58;103227.44;;;5.64;65.04
62779;BME280;48821;48.796;2.396;2023-02-14T00:04:10;103226.56;;;5.63;65.24
62779;BME280;48821;48.796;2.396;2023-02-14T00:05:22;103222.19;;;5.62;65.23
62779;BME280;48821;48.796;2.396;2023-02-14T00:06:36;103223.91;;;5.62;65.29
62779;BME280;48821;48.796;2.396;2023-02-14T00:07:48;103226.50;;;5.60;65.50
62779;BME280;48821;48.796;2.396;2023-02-14T00:09:02;103227.31;;;5.59;65.48
62779;BME280;48821;48.796;2.396;2023-02-14T00:10:13;103227.31;;;5.59;65.20
62779;BME280;48821;48.796;2.396;2023-02-14T00:11:25;103225.53;;;5.58;65.28
62779;BME280;48821;48.796;2.396;2023-02-14T00:12:39;103228.13;;;5.57;65.35
62779;BME280;48821;48.796;2.396;2023-02-14T00:13:51;103223.78;;;5.57;65.26
62779;BME280;48821;48.796;2.396;2023-02-14T00:15:20;103222.88;;;5.55;65.61
62779;BME280;48821;48.796;2.396;2023-02-14T00:16:36;103221.94;;;5.53;65.46
62779;BME280;48821;48.796;2.396;2023-02-14T00:17:56;103224.56;;;5.53;65.24
62779;BME280;48821;48.796;2.396;2023-02-14T00:19:12;103221.94;;;5.53;65.24
62779;BME280;48821;48.796;2.396;2023-02-14T00:20:23;103227.09;;;5.51;65.02
62779;BME280;48821;48.796;2.396;2023-02-14T00:21:37;103216.63;;;5.50;65.68
62779;BME280;48821;48.796;2.396;2023-02-14T00:22:50;103220.06;;;5.49;65.31
62779;BME280;48821;48.796;2.396;2023-02-14T00:24:03;103227.88;;;5.47;65.39
62779;BME280;48821;48.796;2.396;2023-02-14T00:25:15;103227.78;;;5.46;65.44
62779;BME280;48821;48.796;2.396;2023-02-14T00:26:27;103225.19;;;5.46;65.56
62779;BME280;48821;48.796;2.396;2023-02-14T00:27:39;103231.25;;;5.45;65.41
62779;BME280;48821;48.796;2.396;2023-02-14T00:28:51;103232.97;;;5.44;65.55
62779;BME280;48821;48.796;2.396;2023-02-14T00:30:06;103230.34;;;5.43;65.19
62779;BME280;48821;48.796;2.396;2023-02-14T00:31:18;103225.94;;;5.42;65.24
62779;BME280;48821;48.796;2.396;2023-02-14T00:32:31;103232.03;;;5.40;65.50
62779;BME280;48821;48.796;2.396;2023-02-14T00:33:41;103226.81;;;5.40;65.36
62779;BME280;48821;48.796;2.396;2023-02-14T00:34:54;103223.25;;;5.38;65.47
62779;BME280;48821;48.796;2.396;2023-02-14T00:36:05;103224.13;;;5.39;65.28
62779;BME280;48821;48.796;2.396;2023-02-14T00:37:16;103223.25;;;5.38;65.57
62779;BME280;48821;48.796;2.396;2023-02-14T00:38:29;103225.00;;;5.38;65.49
62779;BME280;48821;48.796;2.396;2023-02-14T00:39:41;103224.06;;;5.36;65.18
62779;BME280;48821;48.796;2.396;2023-02-14T00:40:52;103223.19;;;5.35;65.47
62779;BME280;48821;48.796;2.396;2023-02-14T00:42:04;103216.19;;;5.34;65.43
62779;BME280;48821;48.796;2.396;2023-02-14T00:43:16;103223.09;;;5.34;65.53
62779;BME280;48821;48.796;2.396;2023-02-14T00:44:28;103220.47;;;5.32;65.47
62779;BME280;48821;48.796;2.396;2023-02-14T00:45:40;103213.47;;;5.31;65.50
62779;BME280;48821;48.796;2.396;2023-02-14T00:46:54;103216.06;;;5.31;65.30
62779;BME280;48821;48.796;2.396;2023-02-14T00:48:08;103221.28;;;5.31;65.43
62779;BME280;48821;48.796;2.396;2023-02-14T00:49:20;103214.31;;;5.30;65.68
62779;BME280;48821;48.796;2.396;2023-02-14T00:50:32;103210.78;;;5.28;65.65
62779;BME280;48821;48.796;2.396;2023-02-14T00:51:43;103209.00;;;5.27;65.70
62779;BME280;48821;48.796;2.396;2023-02-14T00:52:57;103208.19;;;5.28;65.51
62779;BME280;48821;48.796;2.396;2023-02-14T00:54:09;103206.41;;;5.27;65.44
62779;BME280;48821;48.796;2.396;2023-02-14T00:55:21;103206.38;;;5.25;65.67
62779;BME280;48821;48.796;2.396;2023-02-14T00:56:32;103210.69;;;5.25;65.56
62779;BME280;48821;48.796;2.396;2023-02-14T00:57:45;103207.25;;;5.26;65.49
62779;BME280;48821;48.796;2.396;2023-02-14T00:58:57;103201.09;;;5.24;65.56
62779;BME280;48821;48.796;2.396;2023-02-14T01:00:10;103202.78;;;5.22;65.48
62779;BME280;48821;48.796;2.396;2023-02-14T01:01:21;103202.78;;;5.22;65.40
62779;BME280;48821;48.796;2.396;2023-02-14T01:02:33;103201.06;;;5.22;65.77
62779;BME280;48821;48.796;2.396;2023-02-14T01:03:46;103204.50;;;5.21;65.43
62779;BME280;48821;48.796;2.396;2023-02-14T01:04:56;103201.88;;;5.21;65.45
62779;BME280;48821;48.796;2.396;2023-02-14T01:06:11;103201.03;;;5.21;65.49
62779;BME280;48821;48.796;2.396;2023-02-14T01:07:22;103207.06;;;5.20;65.75
62779;BME280;48821;48.796;2.396;2023-02-14T01:08:34;103200.94;;;5.17;65.40
62779;BME280;48821;48.796;2.396;2023-02-14T01:09:46;103197.44;;;5.17;65.31
62779;BME280;48821;48.796;2.396;2023-02-14T01:11:09;103199.09;;;5.15;65.86
62779;BME280;48821;48.796;2.396;2023-02-14T01:12:20;103198.22;;;5.14;65.23
62779;BME280;48821;48.796;2.396;2023-02-14T01:13:32;103199.94;;;5.14;65.19
62779;BME280;48821;48.796;2.396;2023-02-14T01:14:44;103203.44;;;5.14;65.60
62779;BME280;48821;48.796;2.396;2023-02-14T01:16:04;103200.81;;;5.14;65.51
62779;BME280;48821;48.796;2.396;2023-02-14T01:17:16;103192.06;;;5.12;65.77
62779;BME280;48821;48.796;2.396;2023-02-14T01:18:30;103195.56;;;5.13;65.61
62779;BME280;48821;48.796;2.396;2023-02-14T01:19:43;103191.19;;;5.12;65.43
62779;BME280;48821;48.796;2.396;2023-02-14T01:20:56;103189.44;;;5.11;65.54
62779;BME280;48821;48.796;2.396;2023-02-14T01:22:07;103191.16;;;5.10;65.33
62779;BME280;48821;48.796;2.396;2023-02-14T01:23:20;103191.97;;;5.09;65.93
62779;BME280;48821;48.796;2.396;2023-02-14T01:24:31;103193.66;;;5.07;65.50
62779;BME280;48821;48.796;2.396;2023-02-14T01:25:43;103197.13;;;5.06;65.65
62779;BME280;48821;48.796;2.396;2023-02-14T01:26:55;103192.72;;;5.05;65.33
62779;BME280;48821;48.796;2.396;2023-02-14T01:28:08;103197.91;;;5.03;65.38
62779;BME280;48821;48.796;2.396;2023-02-14T01:29:23;103192.63;;;5.02;65.45
62779;BME280;48821;48.796;2.396;2023-02-14T01:30:34;103201.31;;;5.01;65.55
62779;BME280;48821;48.796;2.396;2023-02-14T01:31:46;103195.16;;;4.99;65.48
62779;BME280;48821;48.796;2.396;2023-02-14T01:32:58;103195.16;;;4.99;65.74
62779;BME280;48821;48.796;2.396;2023-02-14T01:34:11;103196.81;;;4.97;65.34
62779;BME280;48821;48.796;2.396;2023-02-14T01:35:23;103199.44;;;4.97;65.12
62779;BME280;48821;48.796;2.396;2023-02-14T01:36:36;103198.56;;;4.96;65.60
62779;BME280;48821;48.796;2.396;2023-02-14T01:37:48;103204.59;;;4.95;65.57
62779;BME280;48821;48.796;2.396;2023-02-14T01:39:05;103201.09;;;4.94;65.31
62779;BME280;48821;48.796;2.396;2023-02-14T01:40:19;103204.56;;;4.93;65.41
62779;BME280;48821;48.796;2.396;2023-02-14T01:41:34;103199.34;;;4.93;65.55
62779;BME280;48821;48.796;2.396;2023-02-14T01:42:44;103195.84;;;4.93;65.67
62779;BME280;48821;48.796;2.396;2023-02-14T01:44:05;103204.56;;;4.93;65.51
62779;BME280;48821;48.796;2.396;2023-02-14T01:45:22;103196.69;;;4.92;65.77
62779;BME280;48821;48.796;2.396;2023-02-14T01:46:36;103195.81;;;4.91;65.54
62779;BME280;48821;48.796;2.396;2023-02-14T01:47:52;103202.75;;;4.91;65.56
62779;BME280;48821;48.796;2.396;2023-02-14T01:49:23;103204.47;;;4.90;65.60
62779;BME280;48821;48.796;2.396;2023-02-14T01:50:39;103198.38;;;4.90;65.76
62779;BME280;48821;48.796;2.396;2023-02-14T01:53:20;103200.94;;;4.88;65.46
62779;BME280;48821;48.796;2.396;2023-02-14T01:54:39;103200.03;;;4.88;65.88
62779;BME280;48821;48.796;2.396;2023-02-14T01:55:58;103195.66;;;4.87;65.92
62779;BME280;48821;48.796;2.396;2023-02-14T01:57:13;103196.50;;;4.86;65.58
62779;BME280;48821;48.796;2.396;2023-02-14T01:58:29;103192.13;;;4.84;65.39
62779;BME280;48821;48.796;2.396;2023-02-14T01:59:51;103200.84;;;4.85;65.45
62779;BME280;48821;48.796;2.396;2023-02-14T02:01:05;103196.41;;;4.82;65.53
62779;BME280;48821;48.796;2.396;2023-02-14T02:02:15;103196.41;;;4.82;65.76
62779;BME280;48821;48.796;2.396;2023-02-14T02:03:43;103192.91;;;4.82;65.55
62779;BME280;48821;48.796;2.396;2023-02-14T02:04:55;103198.97;;;4.81;65.42
62779;BME280;48821;48.796;2.396;2023-02-14T02:06:15;103198.09;;;4.80;65.73
62779;BME280;48821;48.796;2.396;2023-02-14T02:07:29;103194.59;;;4.80;65.62
62779;BME280;48821;48.796;2.396;2023-02-14T02:08:47;103200.66;;;4.79;65.71
62779;BME280;48821;48.796;2.396;2023-02-14T02:10:02;103197.16;;;4.78;65.73
62779;BME280;48821;48.796;2.396;2023-02-14T02:11:13;103188.44;;;4.78;65.69
62779;BME280;48821;48.796;2.396;2023-02-14T02:12:27;103186.66;;;4.77;65.57
62779;BME280;48821;48.796;2.396;2023-02-14T02:13:40;103194.47;;;4.77;65.47
62779;BME280;48821;48.796;2.396;2023-02-14T02:14:54;103200.53;;;4.76;65.62
62779;BME280;48821;48.796;2.396;2023-02-14T02:16:46;103189.19;;;4.73;65.75
62779;BME280;48821;48.796;2.396;2023-02-14T02:21:38;103184.66;;;4.68;65.65
62779;BME280;48821;48.796;2.396;2023-02-14T02:26:27;103188.94;;;4.66;65.63
62779;BME280;48821;48.796;2.396;2023-02-14T02:36:49;103194.84;;;4.60;66.04
62779;BME280;48821;48.796;2.396;2023-02-14T02:44:48;103186.88;;;4.55;65.97
62779;BME280;48821;48.796;2.396;2023-02-14T02:46:24;103184.28;;;4.55;65.79
62779;BME280;48821;48.796;2.396;2023-02-14T02:48:14;103176.34;;;4.52;65.98
62779;BME280;48821;48.796;2.396;2023-02-14T02:51:19;103179.75;;;4.49;65.82
62779;BME280;48821;48.796;2.396;2023-02-14T02:52:59;103182.34;;;4.49;66.21
62779;BME280;48821;48.796;2.396;2023-02-14T02:54:33;103179.75;;;4.49;66.09
62779;BME280;48821;48.796;2.396;2023-02-14T02:56:51;103177.13;;;4.49;65.94
62779;BME280;48821;48.796;2.396;2023-02-14T02:57:58;103178.91;;;4.50;66.10
62779;BME280;48821;48.796;2.396;2023-02-14T02:59:15;103182.41;;;4.51;65.83
62779;BME280;48821;48.796;2.396;2023-02-14T03:00:30;103179.75;;;4.49;65.92
62779;BME280;48821;48.796;2.396;2023-02-14T03:01:48;103173.69;;;4.49;66.17
62779;BME280;48821;48.796;2.396;2023-02-14T03:03:01;103176.28;;;4.49;65.84
62779;BME280;48821;48.796;2.396;2023-02-14T03:04:35;103178.81;;;4.47;66.16
62779;BME280;48821;48.796;2.396;2023-02-14T03:06:03;103176.22;;;4.47;65.51
62779;BME280;48821;48.796;2.396;2023-02-14T03:07:14;103171.84;;;4.46;65.86
62779;BME280;48821;48.796;2.396;2023-02-14T03:08:44;103174.38;;;4.45;65.66
62779;BME280;48821;48.796;2.396;2023-02-14T03:10:04;103168.31;;;4.44;65.96
62779;BME280;48821;48.796;2.396;2023-02-14T03:11:15;103176.06;;;4.43;65.82
62779;BME280;48821;48.796;2.396;2023-02-14T03:14:09;103178.63;;;4.41;65.63
62779;BME280;48821;48.796;2.396;2023-02-14T03:17:09;103178.53;;;4.38;66.06
62779;BME280;48821;48.796;2.396;2023-02-14T03:20:45;103178.41;;;4.35;65.74
62779;BME280;48821;48.796;2.396;2023-02-14T03:23:24;103174.84;;;4.31;65.96
62779;BME280;48821;48.796;2.396;2023-02-14T03:24:41;103171.34;;;4.31;65.79
62779;BME280;48821;48.796;2.396;2023-02-14T03:27:15;103173.91;;;4.29;66.11
62779;BME280;48821;48.796;2.396;2023-02-14T03:33:02;103177.22;;;4.25;65.80
62779;BME280;48821;48.796;2.396;2023-02-14T03:34:48;103172.91;;;4.25;66.08
62779;BME280;48821;48.796;2.396;2023-02-14T03:36:12;103170.19;;;4.22;66.38
62779;BME280;48821;48.796;2.396;2023-02-14T03:40:35;103177.06;;;4.20;66.09
62779;BME280;48821;48.796;2.396;2023-02-14T03:41:53;103165.72;;;4.18;65.87
62779;BME280;48821;48.796;2.396;2023-02-14T03:43:18;103166.66;;;4.20;66.27
62779;BME280;48821;48.796;2.396;2023-02-14T03:44:33;103172.72;;;4.19;65.73
62779;BME280;48821;48.796;2.396;2023-02-14T03:45:51;103166.63;;;4.19;66.04
62779;BME280;48821;48.796;2.396;2023-02-14T03:47:07;103163.97;;;4.17;66.55
62779;BME280;48821;48.796;2.396;2023-02-14T03:48:21;103170.03;;;4.18;65.83
62779;BME280;48821;48.796;2.396;2023-02-14T03:49:37;103173.53;;;4.18;65.71
62779;BME280;48821;48.796;2.396;2023-02-14T03:50:51;103169.19;;;4.17;65.82
62779;BME280;48821;48.796;2.396;2023-02-14T03:52:06;103175.25;;;4.18;66.10
62779;BME280;48821;48.796;2.396;2023-02-14T03:53:22;103176.09;;;4.16;65.70
62779;BME280;48821;48.796;2.396;2023-02-14T03:54:36;103175.22;;;4.16;66.01
62779;BME280;48821;48.796;2.396;2023-02-14T03:57:30;103172.59;;;4.16;66.05
62779;BME280;48821;48.796;2.396;2023-02-14T03:58:47;103174.28;;;4.14;65.83
62779;BME280;48821;48.796;2.396;2023-02-14T04:00:00;103175.94;;;4.12;66.15
62779;BME280;48821;48.796;2.396;2023-02-14T04:02:33;103174.16;;;4.11;65.88
62779;BME280;48821;48.796;2.396;2023-02-14T04:03:46;103174.16;;;4.11;65.90
62779;BME280;48821;48.796;2.396;2023-02-14T04:05:02;103176.78;;;4.11;66.00
62779;BME280;48821;48.796;2.396;2023-02-14T04:06:18;103170.63;;;4.09;66.00
62779;BME280;48821;48.796;2.396;2023-02-14T04:07:29;103174.94;;;4.08;65.92
62779;BME280;48821;48.796;2.396;2023-02-14T04:08:40;103167.09;;;4.07;66.38
62779;BME280;48821;48.796;2.396;2023-02-14T04:09:52;103161.91;;;4.07;66.26
62779;BME280;48821;48.796;2.396;2023-02-14T04:11:05;103172.31;;;4.07;65.83
62779;BME280;48821;48.796;2.396;2023-02-14T04:12:18;103174.00;;;4.06;66.01
62779;BME280;48821;48.796;2.396;2023-02-14T04:13:29;103167.91;;;4.05;66.20
62779;BME280;48821;48.796;2.396;2023-02-14T04:14:41;103175.72;;;4.05;66.18
62779;BME280;48821;48.796;2.396;2023-02-14T04:15:53;103180.94;;;4.05;65.73
62779;BME280;48821;48.796;2.396;2023-02-14T04:17:04;103178.34;;;4.05;66.14
62779;BME280;48821;48.796;2.396;2023-02-14T04:18:33;103175.69;;;4.04;65.86
62779;BME280;48821;48.796;2.396;2023-02-14T04:20:03;103183.50;;;4.04;65.94
62779;BME280;48821;48.796;2.396;2023-02-14T04:21:15;103182.59;;;4.03;66.11
62779;BME280;48821;48.796;2.396;2023-02-14T04:22:27;103179.97;;;4.02;65.68
62779;BME280;48821;48.796;2.396;2023-02-14T04:23:39;103177.28;;;4.00;66.27
62779;BME280;48821;48.796;2.396;2023-02-14T04:24:50;103185.09;;;4.00;65.94
62779;BME280;48821;48.796;2.396;2023-02-14T04:26:02;103174.63;;;3.99;66.20
62779;BME280;48821;48.796;2.396;2023-02-14T04:27:15;103180.75;;;3.99;66.12
62779;BME280;48821;48.796;2.396;2023-02-14T04:28:29;103173.75;;;3.98;65.99
62779;BME280;48821;48.796;2.396;2023-02-14T04:29:43;103179.84;;;3.99;66.19
62779;BME280;48821;48.796;2.396;2023-02-14T04:30:55;103176.34;;;3.98;65.66
62779;BME280;48821;48.796;2.396;2023-02-14T04:32:09;103179.81;;;3.97;66.14
62779;BME280;48821;48.796;2.396;2023-02-14T04:33:20;103180.63;;;3.96;66.07
62779;BME280;48821;48.796;2.396;2023-02-14T04:34:33;103186.72;;;3.97;65.70
62779;BME280;48821;48.796;2.396;2023-02-14T04:35:44;103180.63;;;3.96;65.62
62779;BME280;48821;48.796;2.396;2023-02-14T04:36:57;103180.63;;;3.96;65.95
62779;BME280;48821;48.796;2.396;2023-02-14T04:38:09;103176.28;;;3.95;66.21
62779;BME280;48821;48.796;2.396;2023-02-14T04:39:22;103177.97;;;3.94;65.49
62779;BME280;48821;48.796;2.396;2023-02-14T04:40:32;103178.78;;;3.93;65.61
62779;BME280;48821;48.796;2.396;2023-02-14T04:41:46;103174.44;;;3.92;66.07
62779;BME280;48821;48.796;2.396;2023-02-14T04:43:01;103170.09;;;3.93;65.96
62779;BME280;48821;48.796;2.396;2023-02-14T04:44:13;103176.16;;;3.92;66.06
62779;BME280;48821;48.796;2.396;2023-02-14T04:45:27;103176.97;;;3.91;66.05
62779;BME280;48821;48.796;2.396;2023-02-14T04:46:41;103176.94;;;3.89;66.34
62779;BME280;48821;48.796;2.396;2023-02-14T04:47:53;103179.47;;;3.88;65.90
62779;BME280;48821;48.796;2.396;2023-02-14T04:49:05;103183.84;;;3.89;66.30
62779;BME280;48821;48.796;2.396;2023-02-14T04:50:17;103180.31;;;3.87;65.75
62779;BME280;48821;48.796;2.396;2023-02-14T04:51:30;103177.72;;;3.87;65.56
62779;BME280;48821;48.796;2.396;2023-02-14T04:52:42;103182.03;;;3.86;65.83
62779;BME280;48821;48.796;2.396;2023-02-14T04:53:54;103179.47;;;3.88;66.14
62779;BME280;48821;48.796;2.396;2023-02-14T04:55:06;103179.47;;;3.88;65.75
62779;BME280;48821;48.796;2.396;2023-02-14T04:56:17;103181.13;;;3.86;66.36
62779;BME280;48821;48.796;2.396;2023-02-14T04:57:31;103181.97;;;3.85;65.81
62779;BME280;48821;48.796;2.396;2023-02-14T04:58:43;103188.00;;;3.83;65.55
62779;BME280;48821;48.796;2.396;2023-02-14T04:59:55;103180.16;;;3.82;65.54
62779;BME280;48821;48.796;2.396;2023-02-14T05:01:09;103182.69;;;3.80;66.10
62779;BME280;48821;48.796;2.396;2023-02-14T05:02:21;103183.53;;;3.79;66.18
62779;BME280;48821;48.796;2.396;2023-02-14T05:03:33;103185.28;;;3.80;66.15
62779;BME280;48821;48.796;2.396;2023-02-14T05:04:45;103186.94;;;3.78;66.38
62779;BME280;48821;48.796;2.396;2023-02-14T05:06:00;103190.47;;;3.80;65.95
62779;BME280;48821;48.796;2.396;2023-02-14T05:07:12;103186.06;;;3.78;66.16
62779;BME280;48821;48.796;2.396;2023-02-14T05:08:23;103184.34;;;3.78;65.83
62779;BME280;48821;48.796;2.396;2023-02-14T05:09:36;103184.34;;;3.78;65.93
62779;BME280;48821;48.796;2.396;2023-02-14T05:10:49;103193.00;;;3.77;66.06
62779;BME280;48821;48.796;2.396;2023-02-14T05:12:03;103187.81;;;3.77;65.66
62779;BME280;48821;48.796;2.396;2023-02-14T05:13:13;103199.03;;;3.76;65.92
62779;BME280;48821;48.796;2.396;2023-02-14T05:14:25;103186.88;;;3.75;65.76
62779;BME280;48821;48.796;2.396;2023-02-14T05:15:38;103186.88;;;3.75;65.47
62779;BME280;48821;48.796;2.396;2023-02-14T05:16:51;103182.47;;;3.74;65.91
62779;BME280;48821;48.796;2.396;2023-02-14T05:18:04;103190.28;;;3.74;66.11
62779;BME280;48821;48.796;2.396;2023-02-14T05:19:16;103183.28;;;3.73;65.82
62779;BME280;48821;48.796;2.396;2023-02-14T05:20:30;103181.53;;;3.72;65.84
62779;BME280;48821;48.796;2.396;2023-02-14T05:21:41;103180.66;;;3.71;65.75
62779;BME280;48821;48.796;2.396;2023-02-14T05:22:53;103187.56;;;3.71;66.00
62779;BME280;48821;48.796;2.396;2023-02-14T05:24:08;103184.97;;;3.71;66.14
62779;BME280;48821;48.796;2.396;2023-02-14T05:25:19;103185.84;;;3.71;65.63
62779;BME280;48821;48.796;2.396;2023-02-14T05:26:33;103188.41;;;3.70;65.81
62779;BME280;48821;48.796;2.396;2023-02-14T05:27:47;103178.00;;;3.70;66.20
62779;BME280;48821;48.796;2.396;2023-02-14T05:28:59;103179.72;;;3.69;66.28
62779;BME280;48821;48.796;2.396;2023-02-14T05:30:11;103181.47;;;3.70;65.60
62779;BME280;48821;48.796;2.396;2023-02-14T05:31:22;103178.00;;;3.70;65.99
62779;BME280;48821;48.796;2.396;2023-02-14T05:32:34;103171.03;;;3.69;65.90
62779;BME280;48821;48.796;2.396;2023-02-14T05:33:48;103174.50;;;3.69;66.13
62779;BME280;48821;48.796;2.396;2023-02-14T05:35:01;103174.50;;;3.69;65.90
62779;BME280;48821;48.796;2.396;2023-02-14T05:36:12;103178.00;;;3.70;65.79
62779;BME280;48821;48.796;2.396;2023-02-14T05:37:24;103176.22;;;3.69;66.27
62779;BME280;48821;48.796;2.396;2023-02-14T05:38:37;103172.72;;;3.68;65.89
62779;BME280;48821;48.796;2.396;2023-02-14T05:39:50;103174.47;;;3.68;65.92
62779;BME280;48821;48.796;2.396;2023-02-14T05:41:04;103177.94;;;3.68;65.84
62779;BME280;48821;48.796;2.396;2023-02-14T05:42:17;103173.59;;;3.67;66.05
62779;BME280;48821;48.796;2.396;2023-02-14T05:43:31;103170.09;;;3.67;66.57
62779;BME280;48821;48.796;2.396;2023-02-14T05:44:45;103172.69;;;3.67;66.52
62779;BME280;48821;48.796;2.396;2023-02-14T05:45:57;103172.69;;;3.67;66.00
62779;BME280;48821;48.796;2.396;2023-02-14T05:47:09;103173.59;;;3.67;66.38
62779;BME280;48821;48.796;2.396;2023-02-14T05:48:21;103174.34;;;3.65;66.06
62779;BME280;48821;48.796;2.396;2023-02-14T05:49:34;103170.91;;;3.66;66.20
62779;BME280;48821;48.796;2.396;2023-02-14T05:50:45;103175.25;;;3.65;66.24
62779;BME280;48821;48.796;2.396;2023-02-14T05:51:59;103180.44;;;3.65;66.45
62779;BME280;48821;48.796;2.396;2023-02-14T05:53:11;103174.34;;;3.65;65.88
62779;BME280;48821;48.796;2.396;2023-02-14T05:54:23;103174.34;;;3.65;66.19
62779;BME280;48821;48.796;2.396;2023-02-14T05:55:35;103182.16;;;3.65;66.55
62779;BME280;48821;48.796;2.396;2023-02-14T05:56:48;103180.38;;;3.64;66.59
62779;BME280;48821;48.796;2.396;2023-02-14T05:58:02;103176.06;;;3.64;66.85
62779;BME280;48821;48.796;2.396;2023-02-14T05:59:13;103176.06;;;3.64;66.61
62779;BME280;48821;48.796;2.396;2023-02-14T06:00:28;103169.16;;;3.65;66.63
62779;BME280;48821;48.796;2.396;2023-02-14T06:01:38;103176.97;;;3.65;66.33
62779;BME280;48821;48.796;2.396;2023-02-14T06:02:50;103175.19;;;3.64;66.23
62779;BME280;48821;48.796;2.396;2023-02-14T06:04:04;103174.34;;;3.65;67.03
62779;BME280;48821;48.796;2.396;2023-02-14T06:05:16;103177.78;;;3.64;66.60
62779;BME280;48821;48.796;2.396;2023-02-14T06:06:29;103179.56;;;3.65;66.86
62779;BME280;48821;48.796;2.396;2023-02-14T06:07:40;103175.25;;;3.65;66.40
62779;BME280;48821;48.796;2.396;2023-02-14T06:08:53;103178.72;;;3.66;66.60
62779;BME280;48821;48.796;2.396;2023-02-14T06:10:06;103175.25;;;3.65;66.72
62779;BME280;48821;48.796;2.396;2023-02-14T06:11:19;103178.78;;;3.67;67.12
62779;BME280;48821;48.796;2.396;2023-02-14T06:12:33;103177.88;;;3.67;66.68
62779;BME280;48821;48.796;2.396;2023-02-14T06:13:46;103177.06;;;3.68;67.17
62779;BME280;48821;48.796;2.396;2023-02-14T06:14:58;103174.50;;;3.69;66.82
62779;BME280;48821;48.796;2.396;2023-02-14T06:16:11;103170.22;;;3.70;67.34
62779;BME280;48821;48.796;2.396;2023-02-14T06:17:23;103166.75;;;3.71;67.53
62779;BME280;48821;48.796;2.396;2023-02-14T06:18:36;103160.72;;;3.72;67.60
62779;BME280;48821;48.796;2.396;2023-02-14T06:19:49;103166.91;;;3.76;67.21
62779;BME280;48821;48.796;2.396;2023-02-14T06:21:02;103164.38;;;3.77;68.03
62779;BME280;48821;48.796;2.396;2023-02-14T06:22:14;103167.06;;;3.80;67.72
62779;BME280;48821;48.796;2.396;2023-02-14T06:23:26;103165.38;;;3.81;68.33
62779;BME280;48821;48.796;2.396;2023-02-14T06:24:36;103172.38;;;3.83;67.85
62779;BME280;48821;48.796;2.396;2023-02-14T06:25:48;103170.72;;;3.86;67.95
62779;BME280;48821;48.796;2.396;2023-02-14T06:27:02;103174.25;;;3.88;67.87
62779;BME280;48821;48.796;2.396;2023-02-14T06:28:15;103175.16;;;3.88;68.24
62779;BME280;48821;48.796;2.396;2023-02-14T06:29:26;103170.88;;;3.90;68.10
62779;BME280;48821;48.796;2.396;2023-02-14T06:30:39;103173.56;;;3.92;67.95
62779;BME280;48821;48.796;2.396;2023-02-14T06:31:53;103171.06;;;3.95;68.30
62779;BME280;48821;48.796;2.396;2023-02-14T06:33:06;103170.22;;;3.96;68.43
62779;BME280;48821;48.796;2.396;2023-02-14T06:34:19;103176.34;;;3.98;68.39
62779;BME280;48821;48.796;2.396;2023-02-14T06:35:30;103166.00;;;4.00;67.90
62779;BME280;48821;48.796;2.396;2023-02-14T06:36:44;103176.47;;;4.01;68.38
62779;BME280;48821;48.796;2.396;2023-02-14T06:37:57;103167.88;;;4.04;68.10
62779;BME280;48821;48.796;2.396;2023-02-14T06:39:11;103168.78;;;4.04;68.27
62779;BME280;48821;48.796;2.396;2023-02-14T06:40:24;103166.22;;;4.06;68.03
62779;BME280;48821;48.796;2.396;2023-02-14T06:41:36;103168.84;;;4.08;68.58
62779;BME280;48821;48.796;2.396;2023-02-14T06:42:47;103166.34;;;4.11;68.41
62779;BME280;48821;48.796;2.396;2023-02-14T06:44:00;103173.38;;;4.13;68.33
62779;BME280;48821;48.796;2.396;2023-02-14T06:45:11;103168.22;;;4.15;67.87
62779;BME280;48821;48.796;2.396;2023-02-14T06:46:24;103167.41;;;4.16;68.23
62779;BME280;48821;48.796;2.396;2023-02-14T06:47:38;103164.84;;;4.18;68.19
62779;BME280;48821;48.796;2.396;2023-02-14T06:48:50;103162.31;;;4.19;68.20
62779;BME280;48821;48.796;2.396;2023-02-14T06:50:03;103165.81;;;4.20;68.24
62779;BME280;48821;48.796;2.396;2023-02-14T06:51:16;103165.84;;;4.21;68.57
62779;BME280;48821;48.796;2.396;2023-02-14T06:52:28;103167.59;;;4.22;68.10
62779;BME280;48821;48.796;2.396;2023-02-14T06:53:40;103164.16;;;4.23;69.17
62779;BME280;48821;48.796;2.396;2023-02-14T06:54:52;103168.56;;;4.24;68.64
62779;BME280;48821;48.796;2.396;2023-02-14T06:56:05;103168.56;;;4.24;68.94
62779;BME280;48821;48.796;2.396;2023-02-14T06:57:17;103168.59;;;4.26;68.73
62779;BME280;48821;48.796;2.396;2023-02-14T06:58:30;103172.13;;;4.28;68.47
62779;BME280;48821;48.796;2.396;2023-02-14T06:59:42;103167.81;;;4.28;68.71
62779;BME280;48821;48.796;2.396;2023-02-14T07:00:55;103171.34;;;4.31;68.51
62779;BME280;48821;48.796;2.396;2023-02-14T07:02:09;103174.88;;;4.33;68.72
62779;BME280;48821;48.796;2.396;2023-02-14T07:03:22;103174.94;;;4.34;68.88
62779;BME280;48821;48.796;2.396;2023-02-14T07:04:33;103181.88;;;4.34;68.31
62779;BME280;48821;48.796;2.396;2023-02-14T07:05:47;103177.56;;;4.34;68.82
62779;BME280;48821;48.796;2.396;2023-02-14T07:07:01;103184.50;;;4.35;68.32
62779;BME280;48821;48.796;2.396;2023-02-14T07:08:13;103182.81;;;4.36;68.59
62779;BME280;48821;48.796;2.396;2023-02-14T07:09:26;103183.72;;;4.38;68.49
62779;BME280;48821;48.796;2.396;2023-02-14T07:10:39;103183.72;;;4.38;68.58
62779;BME280;48821;48.796;2.396;2023-02-14T07:11:49;103183.72;;;4.38;68.58
62779;BME280;48821;48.796;2.396;2023-02-14T07:13:03;103181.13;;;4.38;68.36
62779;BME280;48821;48.796;2.396;2023-02-14T07:14:15;103187.22;;;4.38;68.62
62779;BME280;48821;48.796;2.396;2023-02-14T07:15:28;103183.72;;;4.38;68.69
62779;BME280;48821;48.796;2.396;2023-02-14T07:16:40;103188.16;;;4.41;68.86
62779;BME280;48821;48.796;2.396;2023-02-14T07:17:51;103190.75;;;4.41;68.96
62779;BME280;48821;48.796;2.396;2023-02-14T07:19:02;103184.66;;;4.40;68.80